createdAt,value
2022-09-29T00:01:11.472Z,11.92
2022-09-29T00:03:39.039Z,11.89
2022-09-29T00:06:17.393Z,11.93
2022-09-29T00:08:46.440Z,11.87
2022-09-29T00:11:19.109Z,11.98
2022-09-29T00:13:49.384Z,11.94
2022-09-29T00:16:17.089Z,11.87
2022-09-29T00:18:44.507Z,11.92
2022-09-29T00:21:22.027Z,12.02
2022-09-29T00:23:50.708Z,11.94
2022-09-29T00:26:25.484Z,11.89
2022-09-29T00:28:58.475Z,11.97
2022-09-29T00:31:31.701Z,11.91
2022-09-29T00:33:59.117Z,12.02
2022-09-29T00:36:30.336Z,11.85
2022-09-29T00:38:59.500Z,11.87
2022-09-29T00:41:38.889Z,11.79
2022-09-29T00:44:13.361Z,11.92
2022-09-29T00:47:02.365Z,11.83
2022-09-29T00:50:12.509Z,11.77
2022-09-29T00:52:49.166Z,11.89
2022-09-29T00:55:26.875Z,11.78
2022-09-29T00:58:12.565Z,11.81
2022-09-29T01:00:40.309Z,11.82
2022-09-29T01:03:17.223Z,11.66
2022-09-29T01:05:57.631Z,11.66
2022-09-29T01:08:55.183Z,11.75
2022-09-29T01:11:22.717Z,11.67
2022-09-29T01:13:54.736Z,11.71
2022-09-29T01:16:22.034Z,11.57
2022-09-29T01:18:54.407Z,11.66
2022-09-29T01:21:51.231Z,11.70
2022-09-29T01:25:03.675Z,11.60
2022-09-29T01:28:28.940Z,11.52
2022-09-29T01:31:36.970Z,11.45
2022-09-29T01:34:40.641Z,11.46
2022-09-29T01:37:49.552Z,11.51
2022-09-29T01:41:11.348Z,11.43
2022-09-29T01:44:16.031Z,11.45
2022-09-29T01:47:14.697Z,11.40
2022-09-29T01:49:52.717Z,11.53
2022-09-29T01:52:31.713Z,11.53
2022-09-29T01:55:17.081Z,11.47
2022-09-29T01:58:05.569Z,11.51
2022-09-29T02:00:47.223Z,11.52
2022-09-29T02:03:40.117Z,11.31
2022-09-29T02:06:24.257Z,11.42
2022-09-29T02:08:59.486Z,11.38
2022-09-29T02:11:28.578Z,11.43
2022-09-29T02:14:19.533Z,11.45
2022-09-29T02:16:59.051Z,11.44
2022-09-29T02:19:33.597Z,11.48
2022-09-29T02:22:00.953Z,11.37
2022-09-29T02:24:28.338Z,11.32
2022-09-29T02:26:56.680Z,11.38
2022-09-29T02:29:25.585Z,11.42
2022-09-29T02:31:53.277Z,11.57
2022-09-29T02:34:21.799Z,11.42
2022-09-29T02:37:38.508Z,11.31
2022-09-29T02:40:37.797Z,11.45
2022-09-29T02:43:36.861Z,11.44
2022-09-29T02:46:47.443Z,11.40
2022-09-29T02:50:03.913Z,11.36
2022-09-29T02:53:26.129Z,11.38
2022-09-29T02:57:17.868Z,11.29
2022-09-29T03:00:13.825Z,11.30
2022-09-29T03:02:43.665Z,11.41
2022-09-29T03:05:20.209Z,11.32
2022-09-29T03:07:49.550Z,11.29
2022-09-29T03:10:18.843Z,11.15
2022-09-29T03:12:47.341Z,11.32
2022-09-29T03:15:15.211Z,11.33
2022-09-29T03:17:42.823Z,11.38
2022-09-29T03:20:12.696Z,11.34
2022-09-29T03:22:39.970Z,11.25
2022-09-29T03:25:08.884Z,11.30
2022-09-29T03:27:38.282Z,11.29
2022-09-29T03:30:07.483Z,11.26
2022-09-29T03:32:34.764Z,11.26
2022-09-29T03:35:02.153Z,11.27
2022-09-29T03:37:30.244Z,11.20
2022-09-29T03:39:57.505Z,11.25
2022-09-29T03:42:24.857Z,11.28
2022-09-29T03:44:52.145Z,11.23
2022-09-29T03:47:19.423Z,11.32
2022-09-29T03:49:46.721Z,11.27
2022-09-29T03:52:14.912Z,11.39
2022-09-29T03:54:42.213Z,11.32
2022-09-29T03:57:09.657Z,11.30
2022-09-29T03:59:36.922Z,11.43
2022-09-29T04:02:05.692Z,11.37
2022-09-29T04:04:33.036Z,11.42
2022-09-29T04:07:00.312Z,11.44
2022-09-29T04:09:27.568Z,11.28
2022-09-29T04:11:54.888Z,11.39
2022-09-29T04:14:25.460Z,11.41
2022-09-29T04:16:52.782Z,11.38
2022-09-29T04:19:20.183Z,11.41
2022-09-29T04:21:47.905Z,11.44
2022-09-29T04:24:15.213Z,11.32
2022-09-29T04:26:42.477Z,11.39
2022-09-29T04:29:10.357Z,11.37
2022-09-29T04:31:37.783Z,11.36
2022-09-29T04:34:05.275Z,11.31
2022-09-29T04:36:32.534Z,11.27
2022-09-29T04:38:59.810Z,11.29
2022-09-29T04:41:27.084Z,11.44
2022-09-29T04:43:54.347Z,11.44
2022-09-29T04:46:21.906Z,11.37
2022-09-29T04:48:49.223Z,11.33
2022-09-29T04:51:16.488Z,11.39
2022-09-29T04:53:44.148Z,11.34
2022-09-29T04:56:12.139Z,11.37
2022-09-29T04:58:39.460Z,11.42
2022-09-29T05:01:15.807Z,11.37
2022-09-29T05:03:43.524Z,11.40
2022-09-29T05:06:11.287Z,11.42
2022-09-29T05:08:38.561Z,11.37
2022-09-29T05:11:09.818Z,11.31
2022-09-29T05:13:38.079Z,11.36
2022-09-29T05:16:06.265Z,11.34
2022-09-29T05:18:35.471Z,11.36
2022-09-29T05:21:27.103Z,11.38
2022-09-29T05:23:58.629Z,11.40
2022-09-29T05:26:26.198Z,11.40
2022-09-29T05:28:53.632Z,11.40
2022-09-29T05:31:21.450Z,11.42
2022-09-29T05:33:48.752Z,11.37
2022-09-29T05:36:16.016Z,11.46
2022-09-29T05:38:43.647Z,11.41
2022-09-29T05:41:12.933Z,11.29
2022-09-29T05:43:41.981Z,11.41
2022-09-29T05:46:10.980Z,11.28
2022-09-29T05:48:38.589Z,11.39
2022-09-29T05:51:22.569Z,11.39
2022-09-29T05:53:51.828Z,11.44
2022-09-29T05:56:27.410Z,11.43
2022-09-29T05:58:55.357Z,11.49
2022-09-29T06:01:26.344Z,11.38
2022-09-29T06:03:57.921Z,11.51
2022-09-29T06:06:29.006Z,11.49
2022-09-29T06:08:59.592Z,11.59
2022-09-29T06:11:32.090Z,11.49
2022-09-29T06:14:01.009Z,11.47
2022-09-29T06:16:32.184Z,11.58
2022-09-29T06:19:01.701Z,11.56
2022-09-29T06:21:34.698Z,11.52
2022-09-29T06:24:04.140Z,11.52
2022-09-29T06:26:31.444Z,11.48
2022-09-29T06:28:58.843Z,11.58
2022-09-29T06:31:32.377Z,11.68
2022-09-29T06:34:04.280Z,11.59
2022-09-29T06:37:02.808Z,11.60
2022-09-29T06:39:30.889Z,11.63
2022-09-29T06:41:58.601Z,11.66
2022-09-29T06:44:29.957Z,11.63
2022-09-29T06:46:58.776Z,11.68
2022-09-29T06:49:26.278Z,11.73
2022-09-29T06:51:53.694Z,11.72
2022-09-29T06:54:26.334Z,11.70
2022-09-29T06:56:55.445Z,11.56
2022-09-29T06:59:23.184Z,11.68
2022-09-29T07:01:51.440Z,11.63
2022-09-29T07:04:22.436Z,11.58
2022-09-29T07:06:50.365Z,11.69
2022-09-29T07:09:18.855Z,11.64
2022-09-29T07:11:51.839Z,11.67
2022-09-29T07:14:23.844Z,11.66
2022-09-29T07:16:52.529Z,11.66
2022-09-29T07:19:20.775Z,11.79
2022-09-29T07:21:48.906Z,11.73
2022-09-29T07:24:19.173Z,11.78
2022-09-29T07:26:46.432Z,11.83
2022-09-29T07:29:15.823Z,11.90
2022-09-29T07:31:51.453Z,11.84
2022-09-29T07:34:21.308Z,11.88
2022-09-29T07:36:49.062Z,11.77
2022-09-29T07:39:16.759Z,11.89
2022-09-29T07:41:44.082Z,11.94
2022-09-29T07:44:11.661Z,11.97
2022-09-29T07:46:38.992Z,12.01
2022-09-29T07:49:06.445Z,12.04
2022-09-29T07:51:33.725Z,12.12
2022-09-29T07:54:05.552Z,12.05
2022-09-29T07:56:33.265Z,12.04
2022-09-29T07:59:02.394Z,11.96
2022-09-29T08:01:30.295Z,12.07
2022-09-29T08:03:57.876Z,12.10
2022-09-29T08:06:27.300Z,12.11
2022-09-29T08:09:03.455Z,12.11
2022-09-29T08:11:34.434Z,12.10
2022-09-29T08:14:02.270Z,12.15
2022-09-29T08:16:30.679Z,12.26
2022-09-29T08:19:00.291Z,12.29
2022-09-29T08:21:29.933Z,12.31
2022-09-29T08:23:57.561Z,12.34
2022-09-29T08:26:38.054Z,12.29
2022-09-29T08:29:08.974Z,12.32
2022-09-29T08:31:40.430Z,12.33
2022-09-29T08:34:08.153Z,12.43
2022-09-29T08:36:36.649Z,12.48
2022-09-29T08:39:05.288Z,12.49
2022-09-29T08:42:11.623Z,12.49
2022-09-29T08:45:11.916Z,12.43
2022-09-29T08:47:50.934Z,12.46
2022-09-29T08:50:42.108Z,12.43
2022-09-29T08:53:26.518Z,12.42
2022-09-29T08:56:24.992Z,12.43
2022-09-29T08:58:53.145Z,12.44
2022-09-29T09:01:28.167Z,12.37
2022-09-29T09:04:02.532Z,12.56
2022-09-29T09:06:49.952Z,12.47
2022-09-29T09:10:17.336Z,12.51
2022-09-29T09:13:43.524Z,12.60
2022-09-29T09:16:49.380Z,12.52
2022-09-29T09:20:15.633Z,12.59
2022-09-29T09:23:00.941Z,12.63
2022-09-29T09:25:35.601Z,12.69
2022-09-29T09:28:42.197Z,12.71
2022-09-29T09:31:33.503Z,12.66
2022-09-29T09:34:43.131Z,12.78
2022-09-29T09:37:33.436Z,12.78
2022-09-29T09:40:29.633Z,12.72
2022-09-29T09:43:37.372Z,12.89
2022-09-29T09:46:44.568Z,12.87
2022-09-29T09:49:43.618Z,12.87
2022-09-29T09:52:22.765Z,12.94
2022-09-29T09:55:01.228Z,12.90
2022-09-29T09:57:58.442Z,12.84
2022-09-29T10:00:54.578Z,12.89
2022-09-29T10:03:22.004Z,12.82
2022-09-29T10:05:50.559Z,13.06
2022-09-29T10:08:44.553Z,13.10
2022-09-29T10:11:34.304Z,13.11
2022-09-29T10:14:28.012Z,13.16
2022-09-29T10:17:12.540Z,13.19
2022-09-29T10:20:08.924Z,13.30
2022-09-29T10:22:36.840Z,13.41
2022-09-29T10:25:20.980Z,13.36
2022-09-29T10:27:55.202Z,13.43
2022-09-29T10:30:36.202Z,13.34
2022-09-29T10:33:10.394Z,13.51
2022-09-29T10:35:44.100Z,13.53
2022-09-29T10:38:26.966Z,13.64
2022-09-29T10:41:08.684Z,13.66
2022-09-29T10:43:41.707Z,13.70
2022-09-29T10:46:56.973Z,13.73
2022-09-29T10:49:29.263Z,13.79
2022-09-29T10:52:20.129Z,13.85
2022-09-29T10:55:03.961Z,13.95
2022-09-29T10:57:35.304Z,13.85
2022-09-29T11:00:03.882Z,13.93
2022-09-29T11:02:38.833Z,13.97
2022-09-29T11:05:23.605Z,14.05
2022-09-29T11:07:53.913Z,14.19
2022-09-29T11:10:34.132Z,14.13
2022-09-29T11:13:24.658Z,14.18
2022-09-29T11:15:52.032Z,14.22
2022-09-29T11:18:35.559Z,14.27
2022-09-29T11:21:24.068Z,14.33
2022-09-29T11:24:35.887Z,14.23
2022-09-29T11:27:54.388Z,14.06
2022-09-29T11:30:46.676Z,14.27
2022-09-29T11:33:42.312Z,14.47
2022-09-29T11:36:32.275Z,14.59
2022-09-29T11:39:46.036Z,14.67
2022-09-29T11:43:19.431Z,14.74
2022-09-29T11:46:56.181Z,14.80
2022-09-29T11:50:22.219Z,14.82
2022-09-29T11:53:38.509Z,14.89
2022-09-29T11:56:41.115Z,14.67
2022-09-29T11:59:50.928Z,14.75
2022-09-29T12:03:27.700Z,14.77
2022-09-29T12:06:48.158Z,14.84
2022-09-29T12:10:16.975Z,14.94
2022-09-29T12:13:41.216Z,15.08
2022-09-29T12:16:20.259Z,15.10
2022-09-29T12:19:13.096Z,15.23
2022-09-29T12:21:52.191Z,15.26
2022-09-29T12:24:43.057Z,15.21
2022-09-29T12:27:42.500Z,15.14
2022-09-29T12:30:29.856Z,15.11
2022-09-29T12:33:23.277Z,15.28
2022-09-29T12:37:02.331Z,15.17
2022-09-29T12:40:22.087Z,15.25
2022-09-29T12:43:22.331Z,15.15
2022-09-29T12:46:21.503Z,15.21
2022-09-29T12:49:33.416Z,15.18
2022-09-29T12:52:05.815Z,15.23
2022-09-29T12:54:54.037Z,15.25
2022-09-29T12:57:34.181Z,15.25
2022-09-29T13:00:16.230Z,15.12
2022-09-29T13:03:40.023Z,15.10
2022-09-29T13:06:56.352Z,15.07
2022-09-29T13:10:35.601Z,14.88
2022-09-29T13:13:40.124Z,15.11
2022-09-29T13:16:44.291Z,14.97
2022-09-29T13:19:57.919Z,14.96
2022-09-29T13:23:32.333Z,15.01
2022-09-29T13:26:50.221Z,14.96
2022-09-29T13:29:24.032Z,15.00
2022-09-29T13:31:57.210Z,14.86
2022-09-29T13:34:38.340Z,14.91
2022-09-29T13:37:21.179Z,15.06
2022-09-29T13:40:17.406Z,14.94
2022-09-29T13:42:51.323Z,15.00
2022-09-29T13:45:22.221Z,14.91
2022-09-29T13:47:52.573Z,14.59
2022-09-29T13:50:53.328Z,14.67
2022-09-29T13:53:25.543Z,14.83
2022-09-29T13:56:03.179Z,14.78
2022-09-29T13:58:46.696Z,14.81
2022-09-29T14:01:40.638Z,14.92
2022-09-29T14:04:55.806Z,14.91
2022-09-29T14:07:49.869Z,14.75
2022-09-29T14:10:58.605Z,14.85
2022-09-29T14:13:47.449Z,14.88
2022-09-29T14:16:53.680Z,14.86
2022-09-29T14:19:55.042Z,14.80
2022-09-29T14:22:31.428Z,14.67
2022-09-29T14:25:53.795Z,14.57
2022-09-29T14:28:32.053Z,14.57
2022-09-29T14:31:02.831Z,14.66
2022-09-29T14:33:43.131Z,14.40
2022-09-29T14:36:22.004Z,14.24
2022-09-29T14:39:24.683Z,14.24
2022-09-29T14:41:49.316Z,14.18
2022-09-29T14:44:55.373Z,14.14
2022-09-29T14:48:23.976Z,14.15
2022-09-29T14:51:35.839Z,14.20
2022-09-29T14:54:42.531Z,14.12
2022-09-29T14:58:21.621Z,14.13
2022-09-29T15:01:09.896Z,14.11
2022-09-29T15:03:51.969Z,14.35
2022-09-29T15:06:27.873Z,14.08
2022-09-29T15:09:23.174Z,13.82
2022-09-29T15:12:02.772Z,13.93
2022-09-29T15:14:39.497Z,13.84
2022-09-29T15:17:54.472Z,14.05
2022-09-29T15:20:55.866Z,14.00
2022-09-29T15:23:54.417Z,14.17
2022-09-29T15:26:21.786Z,13.98
2022-09-29T15:28:49.104Z,13.94
2022-09-29T15:31:34.295Z,13.82
2022-09-29T15:34:04.596Z,13.79
2022-09-29T15:36:39.957Z,13.78
2022-09-29T15:39:33.090Z,13.68
2022-09-29T15:42:23.930Z,13.71
2022-09-29T15:45:09.979Z,13.90
2022-09-29T15:47:41.523Z,13.86
2022-09-29T15:50:24.092Z,13.93
2022-09-29T15:52:53.356Z,13.92
2022-09-29T15:55:24.897Z,13.97
2022-09-29T15:57:58.523Z,14.00
2022-09-29T16:00:28.499Z,14.06
2022-09-29T16:03:26.726Z,13.99
2022-09-29T16:06:35.681Z,14.08
2022-09-29T16:09:17.330Z,13.95
2022-09-29T16:11:44.943Z,14.05
2022-09-29T16:14:27.429Z,13.95
2022-09-29T16:16:59.017Z,14.05
2022-09-29T16:19:31.954Z,13.92
2022-09-29T16:22:06.573Z,13.86
2022-09-29T16:24:55.712Z,13.90
2022-09-29T16:27:59.770Z,13.89
2022-09-29T16:30:38.700Z,13.86
2022-09-29T16:33:22.740Z,13.93
2022-09-29T16:36:18.602Z,14.04
2022-09-29T16:38:47.693Z,14.03
2022-09-29T16:41:39.883Z,14.00
2022-09-29T16:44:19.536Z,14.01
2022-09-29T16:47:22.020Z,13.99
2022-09-29T16:50:05.037Z,13.89
2022-09-29T16:52:50.856Z,13.89
2022-09-29T16:55:28.454Z,13.82
2022-09-29T16:58:12.338Z,13.78
2022-09-29T17:00:41.018Z,13.81
2022-09-29T17:03:09.972Z,13.86
2022-09-29T17:05:49.216Z,13.80
2022-09-29T17:08:27.836Z,13.82
2022-09-29T17:10:57.407Z,13.81
2022-09-29T17:13:27.098Z,13.79
2022-09-29T17:15:54.512Z,13.71
2022-09-29T17:18:25.051Z,13.65
2022-09-29T17:20:52.571Z,13.68
2022-09-29T17:23:19.868Z,13.76
2022-09-29T17:25:48.481Z,13.74
2022-09-29T17:28:24.532Z,13.70
2022-09-29T17:30:56.225Z,13.74
2022-09-29T17:33:23.711Z,13.61
2022-09-29T17:35:55.726Z,13.69
2022-09-29T17:38:23.938Z,13.71
2022-09-29T17:41:08.854Z,13.71
2022-09-29T17:43:39.143Z,13.73
2022-09-29T17:46:10.346Z,13.63
2022-09-29T17:48:37.742Z,13.67
2022-09-29T17:51:05.932Z,13.63
2022-09-29T17:53:33.190Z,13.63
2022-09-29T17:56:02.792Z,13.71
2022-09-29T17:58:31.870Z,13.73
2022-09-29T18:00:59.597Z,13.54
2022-09-29T18:03:26.958Z,13.75
2022-09-29T18:06:00.714Z,13.70
2022-09-29T18:08:29.567Z,13.73
2022-09-29T18:11:01.293Z,13.68
2022-09-29T18:13:33.788Z,13.74
2022-09-29T18:16:02.058Z,13.65
2022-09-29T18:18:29.587Z,13.62
2022-09-29T18:20:56.997Z,13.61
2022-09-29T18:23:24.608Z,13.59
2022-09-29T18:25:53.115Z,13.56
2022-09-29T18:28:21.263Z,13.63
2022-09-29T18:30:57.903Z,13.51
2022-09-29T18:33:27.399Z,13.51
2022-09-29T18:35:55.552Z,13.47
2022-09-29T18:38:23.426Z,13.45
2022-09-29T18:40:54.217Z,13.43
2022-09-29T18:43:25.648Z,13.43
2022-09-29T18:45:57.427Z,13.54
2022-09-29T18:48:26.524Z,13.47
2022-09-29T18:50:56.665Z,13.45
2022-09-29T18:53:25.097Z,13.48
2022-09-29T18:56:03.560Z,13.45
2022-09-29T18:58:31.329Z,13.45
2022-09-29T19:00:58.885Z,13.47
2022-09-29T19:03:29.846Z,13.37
2022-09-29T19:05:57.850Z,13.29
2022-09-29T19:08:25.351Z,13.31
2022-09-29T19:10:58.417Z,13.30
2022-09-29T19:13:26.673Z,13.21
2022-09-29T19:15:59.437Z,13.30
2022-09-29T19:18:27.309Z,13.25
2022-09-29T19:20:59.690Z,13.18
2022-09-29T19:23:27.933Z,13.21
2022-09-29T19:25:58.509Z,13.09
2022-09-29T19:28:27.439Z,13.22
2022-09-29T19:31:03.903Z,13.17
2022-09-29T19:33:31.647Z,13.23
2022-09-29T19:36:08.659Z,13.18
2022-09-29T19:38:39.044Z,13.18
2022-09-29T19:41:21.284Z,13.19
2022-09-29T19:43:49.887Z,13.08
2022-09-29T19:46:20.484Z,13.20
2022-09-29T19:48:48.179Z,13.15
2022-09-29T19:51:36.685Z,13.11
2022-09-29T19:54:11.103Z,13.25
2022-09-29T19:56:43.363Z,13.21
2022-09-29T19:59:15.118Z,13.17
2022-09-29T20:01:45.626Z,13.11
2022-09-29T20:04:14.450Z,13.17
2022-09-29T20:06:42.732Z,13.11
2022-09-29T20:09:10.843Z,13.18
2022-09-29T20:11:40.348Z,13.20
2022-09-29T20:14:12.250Z,13.22
2022-09-29T20:16:43.175Z,13.18
2022-09-29T20:19:18.694Z,13.17
2022-09-29T20:21:53.547Z,12.99
2022-09-29T20:24:25.227Z,13.02
2022-09-29T20:26:57.379Z,13.03
2022-09-29T20:29:25.367Z,12.97
2022-09-29T20:31:53.790Z,13.01
2022-09-29T20:34:22.250Z,13.08
2022-09-29T20:36:54.500Z,13.15
2022-09-29T20:39:24.620Z,13.10
2022-09-29T20:41:54.384Z,12.94
2022-09-29T20:44:25.613Z,13.04
2022-09-29T20:46:56.085Z,12.97
2022-09-29T20:49:25.441Z,12.93
2022-09-29T20:51:53.836Z,12.97
2022-09-29T20:54:21.940Z,12.96
2022-09-29T20:56:50.850Z,12.99
2022-09-29T20:59:23.310Z,12.99
2022-09-29T21:01:53.336Z,13.00
2022-09-29T21:04:22.289Z,12.89
2022-09-29T21:06:52.371Z,12.91
2022-09-29T21:09:24.033Z,12.95
2022-09-29T21:11:54.578Z,13.01
2022-09-29T21:14:27.894Z,12.96
2022-09-29T21:16:55.414Z,12.99
2022-09-29T21:19:26.484Z,12.92
2022-09-29T21:21:55.942Z,12.93
2022-09-29T21:24:23.656Z,12.80
2022-09-29T21:26:51.106Z,12.87
2022-09-29T21:29:19.920Z,12.76
2022-09-29T21:31:47.556Z,12.78
2022-09-29T21:34:15.817Z,12.76
2022-09-29T21:36:43.438Z,12.76
2022-09-29T21:39:11.760Z,12.84
2022-09-29T21:41:42.948Z,12.73
2022-09-29T21:44:24.244Z,12.66
2022-09-29T21:46:52.266Z,12.81
2022-09-29T21:49:20.663Z,12.74
2022-09-29T21:51:51.041Z,12.76
2022-09-29T21:54:24.853Z,12.69
2022-09-29T21:56:53.060Z,12.73
2022-09-29T21:59:22.793Z,12.75
2022-09-29T22:01:52.937Z,12.76
2022-09-29T22:04:21.018Z,12.63
2022-09-29T22:06:48.623Z,12.62
2022-09-29T22:09:21.658Z,12.78
2022-09-29T22:11:50.195Z,12.63
2022-09-29T22:14:18.766Z,12.53
2022-09-29T22:16:46.390Z,12.52
2022-09-29T22:19:29.745Z,12.60
2022-09-29T22:21:57.600Z,12.51
2022-09-29T22:24:27.401Z,12.40
2022-09-29T22:26:55.145Z,12.50
2022-09-29T22:29:22.808Z,12.40
2022-09-29T22:31:50.550Z,12.41
2022-09-29T22:34:17.885Z,12.46
2022-09-29T22:36:45.164Z,12.36
2022-09-29T22:39:12.469Z,12.41
2022-09-29T22:41:40.133Z,12.30
2022-09-29T22:44:08.072Z,12.32
2022-09-29T22:46:35.874Z,12.32
2022-09-29T22:49:04.092Z,12.32
2022-09-29T22:51:31.800Z,12.31
2022-09-29T22:53:59.662Z,12.31
2022-09-29T22:56:29.829Z,12.21
2022-09-29T22:59:04.441Z,12.25
2022-09-29T23:01:35.717Z,12.18
2022-09-29T23:04:04.328Z,12.15
2022-09-29T23:06:33.466Z,12.29
2022-09-29T23:09:00.901Z,12.29
2022-09-29T23:11:30.055Z,12.41
2022-09-29T23:13:57.432Z,12.30
2022-09-29T23:16:24.899Z,12.30
2022-09-29T23:18:58.700Z,12.22
2022-09-29T23:21:26.501Z,12.33
2022-09-29T23:24:01.920Z,12.10
2022-09-29T23:26:31.148Z,12.10
2022-09-29T23:28:59.901Z,11.99
2022-09-29T23:31:28.770Z,12.01
2022-09-29T23:34:00.031Z,12.02
2022-09-29T23:36:31.467Z,12.04
2022-09-29T23:39:10.863Z,12.12
2022-09-29T23:41:49.940Z,12.07
2022-09-29T23:44:28.888Z,12.01
2022-09-29T23:46:58.335Z,11.99
2022-09-29T23:49:28.882Z,11.99
2022-09-29T23:52:04.343Z,12.02
2022-09-29T23:54:31.756Z,12.00
2022-09-29T23:56:59.375Z,12.00
2022-09-29T23:59:26.938Z,12.00
